Aviation Digital Data Service (ADDS)

Output produced by METARs form (0730 UTC 23 September 2017)
found at http://www.aviationweather.gov/adds/metars/
 
KJST 230654Z AUTO 00000KT 10SM CLR 18/11 A3014 RMK AO2 SLP190 T01780106
KJST 230554Z AUTO 00000KT 10SM CLR 18/11 A3014 RMK AO2 SLP193 T01780106 10228 20172 56001
KJST 230454Z AUTO 00000KT 10SM CLR 18/11 A3014 RMK AO2 SLP193 T01780106 402720150
KJST 230354Z AUTO 08003KT 10SM CLR 20/10 A3015 RMK AO2 SLP195 T02000100
KJST 230254Z AUTO 08004KT 10SM CLR 21/10 A3015 RMK AO2 SLP195 T02060100 53007
KJST 230154Z AUTO 36003KT 10SM CLR 21/10 A3014 RMK AO2 SLP192 T02110100
KJST 230054Z AUTO 34007KT 10SM CLR 22/09 A3013 RMK AO2 SLP192 T02220094
KJST 222354Z AUTO 33005KT 10SM CLR 23/11 A3013 RMK AO2 SLP190 T02280111 10272 20222 55000
KJST 222254Z AUTO 32005KT 10SM CLR 23/12 A3012 RMK AO2 SLP190 T02280122
KJST 222154Z AUTO 32007KT 10SM CLR 26/12 A3013 RMK AO2 SLP188 T02610122
KJST 222054Z AUTO 35006KT 10SM CLR 27/12 A3013 RMK AO2 SLP188 T02670117 56008
KJST 221954Z AUTO 29008KT 10SM CLR 27/14 A3013 RMK AO2 SLP189 T02670144
KJST 221854Z AUTO 33008KT 10SM CLR 26/15 A3014 RMK AO2 SLP193 T02610150
KJST 221754Z AUTO 32007KT 10SM CLR 25/15 A3015 RMK AO2 SLP197 T02500150 10256 20156 58009
KJST 221654Z AUTO 30008KT 10SM CLR 24/16 A3017 RMK AO2 SLP203 T02440156
KJST 221554Z AUTO 33008KT 10SM CLR 23/15 A3018 RMK AO2 SLP207 T02330150
KJST 221454Z AUTO VRB03KT 10SM CLR 23/16 A3018 RMK AO2 SLP207 T02280156 52002
KJST 221354Z AUTO 26003KT 10SM CLR 20/15 A3018 RMK AO2 SLP207 T02000150
KJST 221254Z AUTO 00000KT 10SM CLR 17/15 A3018 RMK AO2 SLP208 T01720150
KJST 221154Z AUTO 26005KT 10SM CLR 16/14 A3018 RMK AO2 SLP208 T01560139 10183 20150 52007
KJST 221054Z AUTO 00000KT 10SM CLR 15/13 A3017 RMK AO2 SLP204 T01500133
KJST 220954Z AUTO 26004KT 10SM CLR 16/13 A3016 RMK AO2 SLP200 T01610133
KJST 220854Z AUTO 00000KT 10SM CLR 16/14 A3015 RMK AO2 SLP197 T01610139 55002
KJST 220754Z AUTO 28003KT 10SM CLR 17/14 A3015 RMK AO2 SLP194 T01720139
KJST 220654Z AUTO 00000KT 10SM CLR 18/14 A3015 RMK AO2 SLP196 T01780144
KJST 220554Z AUTO 00000KT 10SM CLR 18/14 A3016 RMK AO2 SLP198 T01780139 10228 20178 55001
KJST 220454Z AUTO 30003KT 10SM CLR 19/14 A3015 RMK AO2 SLP197 T01890144 402720144 TSNO
KJST 220354Z AUTO 00000KT 10SM CLR 20/14 A3016 RMK AO2 SLP199 T02000139
KJST 220254Z AUTO 00000KT 10SM CLR 20/14 A3016 RMK AO2 SLP199 T02000139 50007
KJST 220154Z AUTO 00000KT 10SM CLR 21/14 A3016 RMK AO2 SLP201 T02060144
KJST 220054Z AUTO 35004KT 10SM CLR 22/13 A3015 RMK AO2 SLP196 T02220128
KJST 212354Z AUTO 34004KT 10SM CLR 23/14 A3014 RMK AO2 SLP194 T02280139 10272 20228 53003
KJST 212254Z AUTO 32005KT 10SM CLR 23/15 A3013 RMK AO2 SLP192 T02330150
KJST 212154Z AUTO 31008KT 10SM CLR 26/14 A3013 RMK AO2 SLP190 T02560144
KJST 212054Z AUTO 31005KT 10SM FEW049 26/14 A3013 RMK AO2 SLP189 T02610144 56008
KJST 211954Z AUTO 10SM FEW047 27/14 A3013 RMK AO2 SLP190 T02670139